INFORMACIÓN METAR y TAF
METAR FOR SEGS
ADDS - METARS form results

(1817 UTC 12 December 2019)
Data provider http://aviationweather.gov/metar/data/
 
METAR text: SEGS 121800Z 11015KT 040V150 9999 FEW020 28/18 Q1011 A2988
Conditions at: SEGS (SAN CRISTOBAL , EC) observed 1800 UTC 12 December 2019
Temperature: 28.0°C (82°F)
Dewpoint: 18.0°C (64°F) [RH = 55%]
Pressure (altimeter): 29.85 inches Hg (1011.0 mb)
Winds: from the ESE (110 degrees) at 17 MPH (15 knots; 7.7 m/s)
Visibility: 6 or more miles (10+ km)
Ceiling: at least 12,000 feet AGL
Clouds: few clouds at 2000 feet AGL
Weather: no significant weather observed at this time

 MAPA DE AEROPUERTO

 INFORMACIÓN DE PISTA
Pista 14 Longitud 7876 ft Ancho 115 ft
Elevación 145 ft Umbral desplazado 0 ft Rumbo de pista 144
Pista 32 Longitud 7876 ft Ancho 115 ft
Elevación 207 ft Umbral desplazado 0 ft Rumbo de pista 324

 FRECUANCIAS DEL AEROPUERTO
Tipo TWR Nombre TWR Frecuencia 122.2 MHZ

 RADIO AYUDAS DEL AEROPUERTO
Tipo NDB Nombre Galapagos Frecuencia 272 KHZ
Tipo VOR-DME Nombre Galapagos Frecuencia 112300 KHZ



Fly Ecuador Virtual 2018 | System by VAM